首页
METAR-TAF:

METAR-TAF

机场 :

二月四日国际机场

罗安达, 安哥拉

纬度: 08-51S, 经度: 013-14E, 海拔: 74米

当前天气观测

该预报发布于34分钟前的12:00 UTC
风速10节,风向西,在西转西南西北之间变化
温度 25°C
湿度 69%
气压 1017 hPa
能見度: 7000

METAR: FNLU 231200Z AUTO 28010KT 240V310 7000 NCD 25/19 Q1017

时间: 13:34 (12:34 UTC)

预报

该预报发布于1小时和34分钟前的11:00 UTC
预报有效从23日的 12点(UTC)到 24日的 18点(UTC)
风速2节,风向多变
能见度10公里或以上
少量云层高于2200英尺
短暂存在
从 23日的 12点(UTC)到 23日的 17点(UTC)
风速8节,风向西南
成为
从 23日的 04点(UTC)到 24日的 02点(UTC)
风速3节,风向多变

TAF: FNLU 231100Z 2312/2418 VRB02KT 9999 FEW022 TEMPO 2312/2317 22008KT BECMG 2304/2402 VRB03KT

超过4000个机场的气象观测和天气预报(METAR&TAF报告)。

可查询的气象台以黄色和红色小点在地图上表示。

将鼠标移到小点上方,可查看气象台名称。

然后点击查看天气观测和预报。

如需切换地图:点击带黑十字的绿色按钮放大地图;点击带横线的绿色按钮缩小地图;或者点击绿色箭头查看邻近地区的地图。


METAR-TAF: